sensor_id;sensor_type;location;lat;lon;timestamp;temperature;humidity
6178;DHT22;3122;48.208;11.174;2023-05-07T00:00:44;12.30;1.00
6178;DHT22;3122;48.208;11.174;2023-05-07T00:05:45;12.40;1.00
6178;DHT22;3122;48.208;11.174;2023-05-07T00:10:45;12.50;1.00
6178;DHT22;3122;48.208;11.174;2023-05-07T00:15:46;12.50;1.00
6178;DHT22;3122;48.208;11.174;2023-05-07T00:20:47;12.50;1.00
6178;DHT22;3122;48.208;11.174;2023-05-07T00:25:47;12.40;1.00
6178;DHT22;3122;48.208;11.174;2023-05-07T00:30:48;12.40;1.00
6178;DHT22;3122;48.208;11.174;2023-05-07T00:35:48;12.30;1.00
6178;DHT22;3122;48.208;11.174;2023-05-07T00:40:49;12.30;1.00
6178;DHT22;3122;48.208;11.174;2023-05-07T00:45:51;12.30;1.00
6178;DHT22;3122;48.208;11.174;2023-05-07T00:50:51;12.20;1.00
6178;DHT22;3122;48.208;11.174;2023-05-07T00:55:52;12.00;1.00
6178;DHT22;3122;48.208;11.174;2023-05-07T01:00:53;12.00;1.00
6178;DHT22;3122;48.208;11.174;2023-05-07T01:05:54;12.00;1.00
6178;DHT22;3122;48.208;11.174;2023-05-07T01:10:57;12.00;1.00
6178;DHT22;3122;48.208;11.174;2023-05-07T01:15:57;12.10;1.00
6178;DHT22;3122;48.208;11.174;2023-05-07T01:20:58;12.10;1.00
6178;DHT22;3122;48.208;11.174;2023-05-07T01:25:59;12.10;1.00
6178;DHT22;3122;48.208;11.174;2023-05-07T01:31:02;12.10;1.00
6178;DHT22;3122;48.208;11.174;2023-05-07T01:36:05;12.10;1.00
6178;DHT22;3122;48.208;11.174;2023-05-07T01:41:07;12.10;1.00
6178;DHT22;3122;48.208;11.174;2023-05-07T01:46:08;12.10;1.00
6178;DHT22;3122;48.208;11.174;2023-05-07T01:51:10;12.00;1.00
6178;DHT22;3122;48.208;11.174;2023-05-07T01:56:10;11.90;1.00
6178;DHT22;3122;48.208;11.174;2023-05-07T02:01:12;11.90;1.00
6178;DHT22;3122;48.208;11.174;2023-05-07T02:06:12;12.00;1.00
6178;DHT22;3122;48.208;11.174;2023-05-07T02:11:13;12.00;1.00
6178;DHT22;3122;48.208;11.174;2023-05-07T02:16:13;12.00;1.00
6178;DHT22;3122;48.208;11.174;2023-05-07T02:21:14;12.00;1.00
6178;DHT22;3122;48.208;11.174;2023-05-07T02:26:15;12.00;1.00
6178;DHT22;3122;48.208;11.174;2023-05-07T02:31:15;12.00;1.00
6178;DHT22;3122;48.208;11.174;2023-05-07T02:36:16;12.00;1.00
6178;DHT22;3122;48.208;11.174;2023-05-07T02:41:16;11.90;1.00
6178;DHT22;3122;48.208;11.174;2023-05-07T02:46:17;11.80;1.00
6178;DHT22;3122;48.208;11.174;2023-05-07T02:51:20;11.80;1.00
6178;DHT22;3122;48.208;11.174;2023-05-07T02:56:21;11.80;1.00
6178;DHT22;3122;48.208;11.174;2023-05-07T03:01:21;11.70;1.00
6178;DHT22;3122;48.208;11.174;2023-05-07T03:06:22;11.70;1.00
6178;DHT22;3122;48.208;11.174;2023-05-07T03:11:22;11.70;1.00
6178;DHT22;3122;48.208;11.174;2023-05-07T03:16:23;11.60;1.00
6178;DHT22;3122;48.208;11.174;2023-05-07T03:21:23;11.50;1.00
6178;DHT22;3122;48.208;11.174;2023-05-07T03:26:24;11.50;1.00
6178;DHT22;3122;48.208;11.174;2023-05-07T03:31:25;11.40;1.00
6178;DHT22;3122;48.208;11.174;2023-05-07T03:36:26;11.40;1.00
6178;DHT22;3122;48.208;11.174;2023-05-07T03:41:27;11.30;1.00
6178;DHT22;3122;48.208;11.174;2023-05-07T03:46:29;11.40;1.00
6178;DHT22;3122;48.208;11.174;2023-05-07T03:51:30;11.40;1.00
6178;DHT22;3122;48.208;11.174;2023-05-07T03:56:30;11.30;1.00
6178;DHT22;3122;48.208;11.174;2023-05-07T04:01:31;11.30;1.00
6178;DHT22;3122;48.208;11.174;2023-05-07T04:06:32;11.30;1.00
6178;DHT22;3122;48.208;11.174;2023-05-07T04:11:32;11.30;1.00
6178;DHT22;3122;48.208;11.174;2023-05-07T04:16:34;11.30;1.00
6178;DHT22;3122;48.208;11.174;2023-05-07T04:21:35;11.20;1.00
6178;DHT22;3122;48.208;11.174;2023-05-07T04:26:35;11.20;1.00
6178;DHT22;3122;48.208;11.174;2023-05-07T04:31:36;11.20;1.00
6178;DHT22;3122;48.208;11.174;2023-05-07T04:36:38;11.20;1.00
6178;DHT22;3122;48.208;11.174;2023-05-07T04:41:39;11.30;1.00
6178;DHT22;3122;48.208;11.174;2023-05-07T04:46:39;11.30;1.00
6178;DHT22;3122;48.208;11.174;2023-05-07T04:51:40;11.30;1.00
6178;DHT22;3122;48.208;11.174;2023-05-07T04:56:43;11.30;1.00
6178;DHT22;3122;48.208;11.174;2023-05-07T05:01:43;11.40;1.00
6178;DHT22;3122;48.208;11.174;2023-05-07T05:06:44;11.60;1.00
6178;DHT22;3122;48.208;11.174;2023-05-07T05:11:44;11.60;1.00
6178;DHT22;3122;48.208;11.174;2023-05-07T05:16:45;11.70;1.00
6178;DHT22;3122;48.208;11.174;2023-05-07T05:21:45;11.80;1.00
6178;DHT22;3122;48.208;11.174;2023-05-07T05:26:46;11.80;1.00
6178;DHT22;3122;48.208;11.174;2023-05-07T05:31:47;11.90;1.00
6178;DHT22;3122;48.208;11.174;2023-05-07T05:36:48;12.00;1.00
6178;DHT22;3122;48.208;11.174;2023-05-07T05:41:48;12.10;1.00
6178;DHT22;3122;48.208;11.174;2023-05-07T05:46:49;12.20;1.00
6178;DHT22;3122;48.208;11.174;2023-05-07T05:51:50;12.30;1.00
6178;DHT22;3122;48.208;11.174;2023-05-07T05:56:50;12.50;1.00
6178;DHT22;3122;48.208;11.174;2023-05-07T06:01:51;12.60;1.00
6178;DHT22;3122;48.208;11.174;2023-05-07T06:06:51;12.80;1.00
6178;DHT22;3122;48.208;11.174;2023-05-07T06:11:52;13.00;1.00
6178;DHT22;3122;48.208;11.174;2023-05-07T06:16:52;13.10;1.00
6178;DHT22;3122;48.208;11.174;2023-05-07T06:21:53;13.20;1.00
6178;DHT22;3122;48.208;11.174;2023-05-07T06:26:54;13.40;1.00
6178;DHT22;3122;48.208;11.174;2023-05-07T06:31:55;13.60;1.00
6178;DHT22;3122;48.208;11.174;2023-05-07T06:36:56;13.70;1.00
6178;DHT22;3122;48.208;11.174;2023-05-07T06:41:56;13.90;1.00
6178;DHT22;3122;48.208;11.174;2023-05-07T06:46:57;14.10;1.00
6178;DHT22;3122;48.208;11.174;2023-05-07T06:51:57;14.20;1.00
6178;DHT22;3122;48.208;11.174;2023-05-07T06:56:58;14.30;1.00
6178;DHT22;3122;48.208;11.174;2023-05-07T07:01:58;14.50;1.00
6178;DHT22;3122;48.208;11.174;2023-05-07T07:06:59;14.60;1.00
6178;DHT22;3122;48.208;11.174;2023-05-07T07:12:00;14.80;1.00
6178;DHT22;3122;48.208;11.174;2023-05-07T07:17:00;15.00;1.00
6178;DHT22;3122;48.208;11.174;2023-05-07T07:22:01;15.20;1.00
6178;DHT22;3122;48.208;11.174;2023-05-07T07:27:01;15.40;1.00
6178;DHT22;3122;48.208;11.174;2023-05-07T07:32:02;15.50;1.00
6178;DHT22;3122;48.208;11.174;2023-05-07T07:37:02;15.70;1.00
6178;DHT22;3122;48.208;11.174;2023-05-07T07:42:06;15.90;1.00
6178;DHT22;3122;48.208;11.174;2023-05-07T07:47:06;16.00;1.00
6178;DHT22;3122;48.208;11.174;2023-05-07T07:52:07;16.20;1.00
6178;DHT22;3122;48.208;11.174;2023-05-07T07:57:08;16.30;1.00
6178;DHT22;3122;48.208;11.174;2023-05-07T08:02:09;16.50;1.00
6178;DHT22;3122;48.208;11.174;2023-05-07T08:07:10;16.60;1.00
6178;DHT22;3122;48.208;11.174;2023-05-07T08:12:11;16.80;1.00
6178;DHT22;3122;48.208;11.174;2023-05-07T08:17:11;17.00;1.00
6178;DHT22;3122;48.208;11.174;2023-05-07T08:22:12;17.00;1.00
6178;DHT22;3122;48.208;11.174;2023-05-07T08:27:13;17.20;1.00
6178;DHT22;3122;48.208;11.174;2023-05-07T08:32:13;17.20;1.00
6178;DHT22;3122;48.208;11.174;2023-05-07T08:37:14;17.40;1.00
6178;DHT22;3122;48.208;11.174;2023-05-07T08:42:16;17.50;1.00
6178;DHT22;3122;48.208;11.174;2023-05-07T08:47:17;17.80;1.00
6178;DHT22;3122;48.208;11.174;2023-05-07T08:52:19;17.90;1.00
6178;DHT22;3122;48.208;11.174;2023-05-07T08:57:20;18.00;1.00
6178;DHT22;3122;48.208;11.174;2023-05-07T09:02:21;18.10;1.00
6178;DHT22;3122;48.208;11.174;2023-05-07T09:07:22;18.30;1.00
6178;DHT22;3122;48.208;11.174;2023-05-07T09:12:23;18.50;1.00
6178;DHT22;3122;48.208;11.174;2023-05-07T09:17:23;18.40;1.00
6178;DHT22;3122;48.208;11.174;2023-05-07T09:22:24;18.50;1.00
6178;DHT22;3122;48.208;11.174;2023-05-07T09:27:25;18.60;1.00
6178;DHT22;3122;48.208;11.174;2023-05-07T09:32:26;18.40;1.00
6178;DHT22;3122;48.208;11.174;2023-05-07T09:37:27;18.60;1.00
6178;DHT22;3122;48.208;11.174;2023-05-07T09:42:28;18.70;1.00
6178;DHT22;3122;48.208;11.174;2023-05-07T09:47:31;18.80;1.00
6178;DHT22;3122;48.208;11.174;2023-05-07T09:52:33;18.80;1.00
6178;DHT22;3122;48.208;11.174;2023-05-07T09:57:36;18.90;1.00
6178;DHT22;3122;48.208;11.174;2023-05-07T10:02:37;19.00;1.00
6178;DHT22;3122;48.208;11.174;2023-05-07T10:07:46;19.00;1.00
6178;DHT22;3122;48.208;11.174;2023-05-07T10:12:47;19.30;1.00
6178;DHT22;3122;48.208;11.174;2023-05-07T10:17:49;19.40;1.00
6178;DHT22;3122;48.208;11.174;2023-05-07T10:22:51;19.40;1.00
6178;DHT22;3122;48.208;11.174;2023-05-07T10:27:53;19.30;1.00
6178;DHT22;3122;48.208;11.174;2023-05-07T10:32:59;19.30;1.00
6178;DHT22;3122;48.208;11.174;2023-05-07T10:38:06;19.50;1.00
6178;DHT22;3122;48.208;11.174;2023-05-07T10:43:07;19.60;1.00
6178;DHT22;3122;48.208;11.174;2023-05-07T10:48:11;19.70;1.00
6178;DHT22;3122;48.208;11.174;2023-05-07T10:58:23;19.80;1.00
6178;DHT22;3122;48.208;11.174;2023-05-07T11:03:24;20.00;1.00
6178;DHT22;3122;48.208;11.174;2023-05-07T11:08:25;20.00;1.00
6178;DHT22;3122;48.208;11.174;2023-05-07T11:13:46;20.10;1.00
6178;DHT22;3122;48.208;11.174;2023-05-07T11:18:48;20.30;1.00
6178;DHT22;3122;48.208;11.174;2023-05-07T11:28:51;20.50;1.00
6178;DHT22;3122;48.208;11.174;2023-05-07T11:33:52;20.60;1.00
6178;DHT22;3122;48.208;11.174;2023-05-07T11:38:53;20.50;1.00
6178;DHT22;3122;48.208;11.174;2023-05-07T11:43:55;20.60;1.00
6178;DHT22;3122;48.208;11.174;2023-05-07T11:48:56;20.80;1.00
6178;DHT22;3122;48.208;11.174;2023-05-07T11:53:57;20.60;1.00
6178;DHT22;3122;48.208;11.174;2023-05-07T11:58:57;20.50;1.00
6178;DHT22;3122;48.208;11.174;2023-05-07T12:03:58;20.70;1.00
6178;DHT22;3122;48.208;11.174;2023-05-07T12:08:58;20.60;1.00
6178;DHT22;3122;48.208;11.174;2023-05-07T12:13:59;20.60;1.00
6178;DHT22;3122;48.208;11.174;2023-05-07T12:19:00;20.80;1.00
6178;DHT22;3122;48.208;11.174;2023-05-07T12:24:01;20.60;1.00
6178;DHT22;3122;48.208;11.174;2023-05-07T12:29:02;20.60;1.00
6178;DHT22;3122;48.208;11.174;2023-05-07T12:34:03;20.70;1.00
6178;DHT22;3122;48.208;11.174;2023-05-07T12:39:07;20.80;1.00
6178;DHT22;3122;48.208;11.174;2023-05-07T12:44:09;20.80;1.00
6178;DHT22;3122;48.208;11.174;2023-05-07T12:49:09;20.90;1.00
6178;DHT22;3122;48.208;11.174;2023-05-07T12:54:10;21.00;1.00
6178;DHT22;3122;48.208;11.174;2023-05-07T12:59:10;20.90;1.00
6178;DHT22;3122;48.208;11.174;2023-05-07T13:04:11;20.80;1.00
6178;DHT22;3122;48.208;11.174;2023-05-07T13:09:11;20.90;1.00
6178;DHT22;3122;48.208;11.174;2023-05-07T13:14:12;20.80;1.00
6178;DHT22;3122;48.208;11.174;2023-05-07T13:19:13;20.90;1.00
6178;DHT22;3122;48.208;11.174;2023-05-07T13:24:13;20.80;1.00
6178;DHT22;3122;48.208;11.174;2023-05-07T13:29:14;20.80;1.00
6178;DHT22;3122;48.208;11.174;2023-05-07T13:34:15;20.70;1.00
6178;DHT22;3122;48.208;11.174;2023-05-07T13:39:15;20.60;1.00
6178;DHT22;3122;48.208;11.174;2023-05-07T13:44:16;20.60;1.00
6178;DHT22;3122;48.208;11.174;2023-05-07T13:49:16;20.50;1.00
6178;DHT22;3122;48.208;11.174;2023-05-07T13:54:24;20.50;1.00
6178;DHT22;3122;48.208;11.174;2023-05-07T13:59:24;20.40;1.00
6178;DHT22;3122;48.208;11.174;2023-05-07T14:04:25;20.40;1.00
6178;DHT22;3122;48.208;11.174;2023-05-07T14:09:25;20.20;1.00
6178;DHT22;3122;48.208;11.174;2023-05-07T14:14:26;20.00;1.00
6178;DHT22;3122;48.208;11.174;2023-05-07T14:19:27;20.00;1.00
6178;DHT22;3122;48.208;11.174;2023-05-07T14:24:27;20.00;1.00
6178;DHT22;3122;48.208;11.174;2023-05-07T14:29:28;20.10;1.00
6178;DHT22;3122;48.208;11.174;2023-05-07T14:34:29;20.00;1.00
6178;DHT22;3122;48.208;11.174;2023-05-07T14:39:30;19.80;1.00
6178;DHT22;3122;48.208;11.174;2023-05-07T14:44:30;20.00;1.00
6178;DHT22;3122;48.208;11.174;2023-05-07T14:49:31;20.00;1.00
6178;DHT22;3122;48.208;11.174;2023-05-07T14:54:33;20.10;1.00
6178;DHT22;3122;48.208;11.174;2023-05-07T14:59:35;20.40;1.00
6178;DHT22;3122;48.208;11.174;2023-05-07T15:04:36;20.40;1.00
6178;DHT22;3122;48.208;11.174;2023-05-07T15:09:36;20.40;1.00
6178;DHT22;3122;48.208;11.174;2023-05-07T15:14:40;20.30;1.00
6178;DHT22;3122;48.208;11.174;2023-05-07T15:19:40;20.10;1.00
6178;DHT22;3122;48.208;11.174;2023-05-07T15:24:41;20.10;1.00
6178;DHT22;3122;48.208;11.174;2023-05-07T15:29:41;19.90;1.00
6178;DHT22;3122;48.208;11.174;2023-05-07T15:34:43;19.60;1.00
6178;DHT22;3122;48.208;11.174;2023-05-07T15:39:43;19.60;1.00
6178;DHT22;3122;48.208;11.174;2023-05-07T15:44:44;19.60;1.00
6178;DHT22;3122;48.208;11.174;2023-05-07T15:49:45;19.60;1.00
6178;DHT22;3122;48.208;11.174;2023-05-07T15:54:45;19.60;1.00
6178;DHT22;3122;48.208;11.174;2023-05-07T15:59:46;19.50;1.00
6178;DHT22;3122;48.208;11.174;2023-05-07T16:04:46;19.40;1.00
6178;DHT22;3122;48.208;11.174;2023-05-07T16:09:47;19.40;1.00
6178;DHT22;3122;48.208;11.174;2023-05-07T16:14:48;19.40;1.00
6178;DHT22;3122;48.208;11.174;2023-05-07T16:19:50;19.40;1.00
6178;DHT22;3122;48.208;11.174;2023-05-07T16:24:51;19.30;1.00
6178;DHT22;3122;48.208;11.174;2023-05-07T16:29:51;19.20;1.00
6178;DHT22;3122;48.208;11.174;2023-05-07T16:34:52;19.00;1.00
6178;DHT22;3122;48.208;11.174;2023-05-07T16:39:52;18.90;1.00
6178;DHT22;3122;48.208;11.174;2023-05-07T16:44:53;18.90;1.00
6178;DHT22;3122;48.208;11.174;2023-05-07T16:49:54;18.90;1.00
6178;DHT22;3122;48.208;11.174;2023-05-07T16:54:54;18.90;1.00
6178;DHT22;3122;48.208;11.174;2023-05-07T16:59:57;18.70;1.00
6178;DHT22;3122;48.208;11.174;2023-05-07T17:04:59;18.70;1.00
6178;DHT22;3122;48.208;11.174;2023-05-07T17:10:00;18.70;1.00
6178;DHT22;3122;48.208;11.174;2023-05-07T17:15:01;18.40;1.00
6178;DHT22;3122;48.208;11.174;2023-05-07T17:20:01;18.40;1.00
6178;DHT22;3122;48.208;11.174;2023-05-07T17:25:02;18.40;1.00
6178;DHT22;3122;48.208;11.174;2023-05-07T17:30:03;18.40;1.00
6178;DHT22;3122;48.208;11.174;2023-05-07T17:35:05;18.30;1.00
6178;DHT22;3122;48.208;11.174;2023-05-07T17:40:06;18.10;1.00
6178;DHT22;3122;48.208;11.174;2023-05-07T17:45:07;18.00;1.00
6178;DHT22;3122;48.208;11.174;2023-05-07T17:50:09;17.80;1.00
6178;DHT22;3122;48.208;11.174;2023-05-07T17:55:10;17.90;1.00
6178;DHT22;3122;48.208;11.174;2023-05-07T18:00:11;17.60;1.00
6178;DHT22;3122;48.208;11.174;2023-05-07T18:05:12;17.50;1.00
6178;DHT22;3122;48.208;11.174;2023-05-07T18:10:12;17.50;1.00
6178;DHT22;3122;48.208;11.174;2023-05-07T18:15:13;17.50;1.00
6178;DHT22;3122;48.208;11.174;2023-05-07T18:20:13;17.50;1.00
6178;DHT22;3122;48.208;11.174;2023-05-07T18:25:14;17.40;1.00
6178;DHT22;3122;48.208;11.174;2023-05-07T18:30:14;17.40;1.00
6178;DHT22;3122;48.208;11.174;2023-05-07T18:35:15;17.50;1.00
6178;DHT22;3122;48.208;11.174;2023-05-07T18:40:16;17.50;1.00
6178;DHT22;3122;48.208;11.174;2023-05-07T18:45:17;17.50;1.00
6178;DHT22;3122;48.208;11.174;2023-05-07T18:50:18;17.30;1.00
6178;DHT22;3122;48.208;11.174;2023-05-07T18:55:19;17.20;1.00
6178;DHT22;3122;48.208;11.174;2023-05-07T19:00:21;17.20;1.00
6178;DHT22;3122;48.208;11.174;2023-05-07T19:05:22;17.20;1.00
6178;DHT22;3122;48.208;11.174;2023-05-07T19:10:22;17.30;1.00
6178;DHT22;3122;48.208;11.174;2023-05-07T19:15:23;17.30;1.00
6178;DHT22;3122;48.208;11.174;2023-05-07T19:20:23;17.10;1.00
6178;DHT22;3122;48.208;11.174;2023-05-07T19:25:24;17.00;1.00
6178;DHT22;3122;48.208;11.174;2023-05-07T19:30:25;17.00;1.00
6178;DHT22;3122;48.208;11.174;2023-05-07T19:35:25;16.90;1.00
6178;DHT22;3122;48.208;11.174;2023-05-07T19:40:26;16.70;1.00
6178;DHT22;3122;48.208;11.174;2023-05-07T19:45:27;16.80;1.00
6178;DHT22;3122;48.208;11.174;2023-05-07T19:50:28;16.60;1.00
6178;DHT22;3122;48.208;11.174;2023-05-07T19:55:28;16.60;1.00
6178;DHT22;3122;48.208;11.174;2023-05-07T20:00:29;16.60;1.00
6178;DHT22;3122;48.208;11.174;2023-05-07T20:05:32;16.50;1.00
6178;DHT22;3122;48.208;11.174;2023-05-07T20:10:33;16.40;1.00
6178;DHT22;3122;48.208;11.174;2023-05-07T20:15:36;16.30;1.00
6178;DHT22;3122;48.208;11.174;2023-05-07T20:20:36;16.40;1.00
6178;DHT22;3122;48.208;11.174;2023-05-07T20:25:39;16.30;1.00
6178;DHT22;3122;48.208;11.174;2023-05-07T20:30:40;16.20;1.00
6178;DHT22;3122;48.208;11.174;2023-05-07T20:35:41;16.20;1.00
6178;DHT22;3122;48.208;11.174;2023-05-07T20:40:42;16.20;1.00
6178;DHT22;3122;48.208;11.174;2023-05-07T20:45:42;16.20;1.00
6178;DHT22;3122;48.208;11.174;2023-05-07T20:50:43;16.10;1.00
6178;DHT22;3122;48.208;11.174;2023-05-07T20:55:44;16.10;1.00
6178;DHT22;3122;48.208;11.174;2023-05-07T21:00:44;16.10;1.00
6178;DHT22;3122;48.208;11.174;2023-05-07T21:05:52;16.00;1.00
6178;DHT22;3122;48.208;11.174;2023-05-07T21:10:53;16.00;1.00
6178;DHT22;3122;48.208;11.174;2023-05-07T21:15:54;16.00;1.00
6178;DHT22;3122;48.208;11.174;2023-05-07T21:20:54;16.10;1.00
6178;DHT22;3122;48.208;11.174;2023-05-07T21:25:55;16.10;1.00
6178;DHT22;3122;48.208;11.174;2023-05-07T21:30:55;16.00;1.00
6178;DHT22;3122;48.208;11.174;2023-05-07T21:35:56;15.90;1.00
6178;DHT22;3122;48.208;11.174;2023-05-07T21:40:57;15.90;1.00
6178;DHT22;3122;48.208;11.174;2023-05-07T21:45:58;15.90;1.00
6178;DHT22;3122;48.208;11.174;2023-05-07T21:51:06;15.90;1.00
6178;DHT22;3122;48.208;11.174;2023-05-07T21:56:07;15.90;1.00
6178;DHT22;3122;48.208;11.174;2023-05-07T22:01:07;16.00;1.00
6178;DHT22;3122;48.208;11.174;2023-05-07T22:06:11;15.90;1.00
6178;DHT22;3122;48.208;11.174;2023-05-07T22:11:12;15.80;1.00
6178;DHT22;3122;48.208;11.174;2023-05-07T22:16:12;15.80;1.00
6178;DHT22;3122;48.208;11.174;2023-05-07T22:21:13;15.80;1.00
6178;DHT22;3122;48.208;11.174;2023-05-07T22:26:14;15.70;1.00
6178;DHT22;3122;48.208;11.174;2023-05-07T22:31:15;15.40;1.00
6178;DHT22;3122;48.208;11.174;2023-05-07T22:36:15;15.00;1.00
6178;DHT22;3122;48.208;11.174;2023-05-07T22:41:16;14.90;1.00
6178;DHT22;3122;48.208;11.174;2023-05-07T22:46:16;14.90;1.00
6178;DHT22;3122;48.208;11.174;2023-05-07T22:51:17;14.60;1.00
6178;DHT22;3122;48.208;11.174;2023-05-07T22:56:17;14.50;1.00
6178;DHT22;3122;48.208;11.174;2023-05-07T23:01:18;14.60;1.00
6178;DHT22;3122;48.208;11.174;2023-05-07T23:06:19;14.40;1.00
6178;DHT22;3122;48.208;11.174;2023-05-07T23:11:19;14.30;1.00
6178;DHT22;3122;48.208;11.174;2023-05-07T23:16:20;14.20;1.00
6178;DHT22;3122;48.208;11.174;2023-05-07T23:21:21;14.30;1.00
6178;DHT22;3122;48.208;11.174;2023-05-07T23:26:21;14.20;1.00
6178;DHT22;3122;48.208;11.174;2023-05-07T23:31:22;14.10;1.00
6178;DHT22;3122;48.208;11.174;2023-05-07T23:36:23;14.10;1.00
6178;DHT22;3122;48.208;11.174;2023-05-07T23:41:24;14.10;1.00
6178;DHT22;3122;48.208;11.174;2023-05-07T23:46:24;14.00;1.00
6178;DHT22;3122;48.208;11.174;2023-05-07T23:51:26;14.00;1.00
6178;DHT22;3122;48.208;11.174;2023-05-07T23:56:26;13.90;1.00
